Time;durP1;ratioP1;P1;durP2;ratioP2;P2;SDS_P1;SDS_P2;PMS_P1;PMS_P2;Temp;Humidity;BMP_temperature;BMP_pressure;BME280_temperature;BME280_humidity;BME280_pressure;Samples;Min_cycle;Max_cycle;Signal;HPM_P1;HPM_P2
2022/09/20 00:04:36;;;;;;;4.87;4.20;;;;;;;7.70;100.00;96714.00;10367365;28;20642;-73
2022/09/20 00:09:37;;;;;;;6.00;5.40;;;;;;;7.63;100.00;96711.94;10367848;28;20637;-73
2022/09/20 00:14:37;;;;;;;6.47;5.60;;;;;;;7.62;100.00;96709.47;10366371;28;20648;-73
2022/09/20 00:19:38;;;;;;;6.23;5.17;;;;;;;7.65;100.00;96714.41;10368405;28;20619;-73
2022/09/20 00:24:38;;;;;;;7.87;4.80;;;;;;;7.60;100.00;96709.63;10367245;28;20583;-74
2022/09/20 00:29:39;;;;;;;6.00;4.77;;;;;;;7.56;100.00;96703.03;10367671;28;20213;-73
2022/09/20 00:39:59;;;;;;;11.80;5.50;;;;;;;7.54;100.00;96710.16;10349409;28;20311;-74
2022/09/20 00:45:04;;;;;;;11.27;5.90;;;;;;;7.50;100.00;96725.28;10367253;28;20674;-74
2022/09/20 00:50:23;;;;;;;8.00;4.97;;;;;;;7.56;100.00;96716.06;10349419;28;20292;-74
2022/09/20 00:55:24;;;;;;;7.00;5.07;;;;;;;7.47;100.00;96715.13;10349645;28;20658;-75
2022/09/20 01:00:25;;;;;;;6.43;5.60;;;;;;;7.48;100.00;96726.38;10347341;28;20677;-74
2022/09/20 01:05:26;;;;;;;9.27;5.67;;;;;;;7.40;100.00;96724.44;10366675;28;20282;-74
2022/09/20 01:10:26;;;;;;;9.50;5.13;;;;;;;7.39;100.00;96727.19;10349292;28;20263;-74
2022/09/20 01:15:28;;;;;;;6.03;5.10;;;;;;;7.40;100.00;96721.84;10369725;28;20560;-73
2022/09/20 01:20:35;;;;;;;6.67;5.40;;;;;;;7.35;100.00;96726.63;10355884;28;20245;-72
2022/09/20 01:25:53;;;;;;;11.83;5.07;;;;;;;7.37;100.00;96719.50;10355366;28;20229;-73
2022/09/20 01:31:07;;;;;;;9.37;5.10;;;;;;;7.38;100.00;96726.38;10372575;28;20315;-75
2022/09/20 01:36:12;;;;;;;5.40;4.43;;;;;;;7.25;100.00;96713.59;10373168;28;20221;-73
2022/09/20 01:41:26;;;;;;;8.43;4.67;;;;;;;7.16;100.00;96721.41;10356048;28;20198;-73
2022/09/20 01:46:34;;;;;;;5.87;4.37;;;;;;;7.15;100.00;96723.16;10355824;28;20257;-73
2022/09/20 01:51:48;;;;;;;8.60;5.30;;;;;;;7.24;100.00;96737.16;10373169;28;20577;-73
2022/09/20 01:57:25;;;;;;;6.57;5.17;;;;;;;7.27;100.00;96739.50;10373183;28;20256;-73
2022/09/20 02:02:50;;;;;;;11.20;5.60;;;;;;;7.24;100.00;96745.81;10355242;28;20236;-73
2022/09/20 02:08:21;;;;;;;6.20;4.30;;;;;;;7.23;100.00;96753.75;10372865;28;20209;-74
2022/09/20 02:13:42;;;;;;;3.30;2.93;;;;;;;7.08;100.00;96741.13;10355062;28;20186;-74
2022/09/20 02:19:17;;;;;;;5.27;2.33;;;;;;;7.04;100.00;96746.72;10372194;28;20229;-74
2022/09/20 02:24:55;;;;;;;2.13;2.03;;;;;;;6.95;100.00;96750.94;10370812;28;20224;-73
2022/09/20 02:30:06;;;;;;;1.90;1.53;;;;;;;6.94;100.00;96741.50;10371958;28;20209;-75
2022/09/20 02:35:19;;;;;;;3.53;2.53;;;;;;;6.96;100.00;96745.59;10354424;28;20220;-74
2022/09/20 02:40:41;;;;;;;6.07;3.70;;;;;;;7.04;100.00;96749.34;10371154;28;20205;-73
2022/09/20 02:45:54;;;;;;;3.90;3.20;;;;;;;6.96;100.00;96745.59;10375206;28;20224;-73
2022/09/20 02:51:04;;;;;;;7.47;3.97;;;;;;;7.01;100.00;96760.84;10353488;28;20197;-74
2022/09/20 02:56:17;;;;;;;8.17;4.73;;;;;;;7.01;100.00;96752.22;10353633;28;20216;-73
2022/09/20 03:01:29;;;;;;;6.33;4.87;;;;;;;7.08;100.00;96759.34;10352794;28;20320;-74
2022/09/20 03:06:39;;;;;;;7.00;4.20;;;;;;;7.16;100.00;96765.69;10347350;28;20228;-74
2022/09/20 03:11:51;;;;;;;4.73;3.30;;;;;;;7.13;100.00;96754.56;10362268;28;20259;-74
2022/09/20 03:17:14;;;;;;;2.87;2.67;;;;;;;7.04;100.00;96759.75;10345422;28;20196;-74
2022/09/20 03:22:30;;;;;;;2.70;2.50;;;;;;;6.96;100.00;96769.03;10344942;28;20201;-73
2022/09/20 03:27:54;;;;;;;2.17;2.07;;;;;;;7.00;100.00;96763.56;10345339;28;20291;-74
2022/09/20 03:33:32;;;;;;;3.30;3.00;;;;;;;7.02;100.00;96762.50;10361402;28;20204;-74
2022/09/20 03:38:51;;;;;;;12.07;6.57;;;;;;;7.00;100.00;96772.22;10343668;28;20907;-73
2022/09/20 03:43:55;;;;;;;10.37;8.37;;;;;;;7.07;100.00;96762.91;10343985;28;20225;-73
2022/09/20 03:49:19;;;;;;;14.37;8.70;;;;;;;6.99;100.00;96773.19;10361647;28;20233;-73
2022/09/20 03:54:57;;;;;;;16.47;9.27;;;;;;;7.07;100.00;96780.31;10361422;28;20221;-73
2022/09/20 04:00:07;;;;;;;14.87;7.67;;;;;;;7.09;100.00;96783.63;10360163;28;20245;-74
2022/09/20 04:05:14;;;;;;;8.00;5.53;;;;;;;7.06;100.00;96787.31;10351114;28;20227;-73
2022/09/20 04:10:52;;;;;;;6.40;5.27;;;;;;;6.96;100.00;96783.84;10349987;28;20693;-74
2022/09/20 04:16:18;;;;;;;8.17;4.57;;;;;;;7.00;100.00;96782.66;10349377;28;20351;-73
2022/09/20 04:21:32;;;;;;;6.60;4.80;;;;;;;6.88;100.00;96788.91;10330580;28;20189;-74
2022/09/20 04:26:39;;;;;;;7.33;5.20;;;;;;;6.90;100.00;96782.59;10350397;28;20241;-73
2022/09/20 04:31:51;;;;;;;11.87;4.87;;;;;;;7.02;100.00;96783.34;10367618;28;20195;-73
2022/09/20 04:37:03;;;;;;;12.50;5.30;;;;;;;7.04;100.00;96781.41;10349993;28;20260;-73
2022/09/20 04:42:19;;;;;;;11.50;5.47;;;;;;;6.87;100.00;96780.25;10367335;28;20201;-73
2022/09/20 04:47:27;;;;;;;10.87;6.17;;;;;;;6.95;100.00;96787.41;10370436;28;20196;-73
2022/09/20 04:52:52;;;;;;;19.17;8.23;;;;;;;6.93;100.00;96784.94;10375361;28;20816;-73
2022/09/20 04:58:23;;;;;;;12.23;8.17;;;;;;;6.92;100.00;96790.28;10375403;28;20189;-73
2022/09/20 05:03:39;;;;;;;13.37;8.57;;;;;;;6.91;100.00;96793.84;10374777;28;20232;-73
2022/09/20 05:08:50;;;;;;;17.07;9.60;;;;;;;6.93;100.00;96802.34;10375310;28;20665;-73
2022/09/20 05:14:15;;;;;;;10.33;7.93;;;;;;;7.03;100.00;96813.63;10374449;28;20192;-73
2022/09/20 05:19:32;;;;;;;11.67;6.73;;;;;;;7.06;100.00;96818.59;10357426;28;20201;-73
2022/09/20 05:25:05;;;;;;;9.90;5.30;;;;;;;7.08;100.00;96815.84;10356705;28;20723;-73
2022/09/20 05:30:27;;;;;;;10.30;5.83;;;;;;;6.91;100.00;96806.88;10374064;28;20646;-74
2022/09/20 05:35:33;;;;;;;8.77;6.60;;;;;;;7.03;100.00;96815.41;10373575;28;20217;-74
2022/09/20 05:41:12;;;;;;;8.40;4.70;;;;;;;6.94;100.00;96824.84;10356048;28;20336;-74
2022/09/20 05:46:31;;;;;;;3.40;2.10;;;;;;;6.85;100.00;96823.03;10373490;28;20225;-74
2022/09/20 05:51:46;;;;;;;5.87;2.00;;;;;;;6.71;100.00;96829.41;10356370;28;20199;-74
2022/09/20 05:56:56;;;;;;;3.57;1.70;;;;;;;6.47;100.00;96821.88;10355878;28;20256;-74
2022/09/20 06:02:12;;;;;;;3.83;2.37;;;;;;;6.35;100.00;96814.13;10371558;28;20241;-74
2022/09/20 06:07:12;;;;;;;5.70;4.80;;;;;;;6.39;100.00;96819.91;10373223;28;20232;-74
2022/09/20 06:12:34;;;;;;;2.53;1.70;;;;;;;6.27;100.00;96824.34;10372774;28;20189;-75
2022/09/20 06:17:38;;;;;;;4.37;2.60;;;;;;;6.18;100.00;96825.09;10373102;28;20460;-74
2022/09/20 06:22:42;;;;;;;4.27;2.83;;;;;;;6.18;100.00;96836.31;10355151;28;20209;-74
2022/09/20 06:27:55;;;;;;;1.77;1.67;;;;;;;6.34;100.00;96842.88;10355165;28;20205;-74
2022/09/20 06:33:08;;;;;;;3.43;3.13;;;;;;;6.38;100.00;96847.69;10353958;28;20252;-74
2022/09/20 06:43:57;;;;;;;2.63;1.90;;;;;;;6.68;100.00;96853.91;10356152;28;20227;-75
2022/09/20 06:48:58;;;;;;;2.60;1.90;;;;;;;6.87;100.00;96849.75;10371900;28;20672;-75
2022/09/20 06:53:58;;;;;;;4.67;4.17;;;;;;;6.67;100.00;96859.25;10370900;28;20284;-75
2022/09/20 06:58:59;;;;;;;5.57;3.60;;;;;;;6.72;100.00;96855.31;10353604;28;20686;-76
2022/09/20 07:04:01;;;;;;;5.13;4.00;;;;;;;6.73;100.00;96861.34;10371054;28;20711;-74
2022/09/20 07:09:02;;;;;;;6.30;3.50;;;;;;;6.82;100.00;96870.16;10370406;28;20709;-74
2022/09/20 07:14:02;;;;;;;5.77;4.13;;;;;;;6.89;100.00;96871.28;10359115;28;20290;-74
2022/09/20 07:19:04;;;;;;;6.60;4.03;;;;;;;6.89;100.00;96877.31;10330203;28;20194;-75
2022/09/20 07:24:05;;;;;;;7.43;4.43;;;;;;;7.22;100.00;96887.59;10329195;28;20225;-74
2022/09/20 07:29:06;;;;;;;6.27;3.23;;;;;;;7.16;100.00;96890.75;10329574;28;20193;-74
2022/09/20 07:34:07;;;;;;;5.37;3.27;;;;;;;7.57;100.00;96883.75;10328677;28;20197;-75
2022/09/20 07:39:07;;;;;;;4.50;2.60;;;;;;;7.71;100.00;96885.97;10328912;28;20589;-75
2022/09/20 07:44:26;;;;;;;5.70;2.80;;;;;;;7.66;100.00;96882.94;10328634;28;20264;-74
2022/09/20 07:49:30;;;;;;;5.67;2.50;;;;;;;8.29;100.00;96884.38;10327760;28;20220;-74
2022/09/20 07:54:31;;;;;;;4.93;2.70;;;;;;;8.46;100.00;96873.25;10327692;28;20185;-74
2022/09/20 07:59:31;;;;;;;3.60;2.00;;;;;;;8.30;100.00;96870.34;10327786;28;20320;-74
2022/09/20 08:04:32;;;;;;;4.73;2.23;;;;;;;8.40;100.00;96876.41;10327515;28;20272;-73
2022/09/20 08:09:32;;;;;;;3.70;3.00;;;;;;;8.28;100.00;96867.88;10327677;28;20213;-73
2022/09/20 08:14:32;;;;;;;8.17;6.30;;;;;;;8.17;100.00;96873.25;10326752;28;20552;-74
2022/09/20 08:19:33;;;;;;;12.47;8.23;;;;;;;7.83;100.00;96884.88;10327589;28;20632;-74
2022/09/20 08:24:33;;;;;;;13.23;7.67;;;;;;;7.84;100.00;96888.31;10326584;28;20733;-73
2022/09/20 08:29:33;;;;;;;17.77;8.60;;;;;;;7.80;100.00;96905.22;10327325;28;20553;-73
2022/09/20 08:34:34;;;;;;;15.83;8.57;;;;;;;7.84;100.00;96911.78;10327287;28;20642;-73
2022/09/20 08:39:34;;;;;;;16.70;9.17;;;;;;;7.95;100.00;96916.09;10343743;28;20575;-74
2022/09/20 08:44:42;;;;;;;14.73;8.60;;;;;;;8.16;100.00;96913.34;10367049;28;20247;-74
2022/09/20 08:49:42;;;;;;;13.73;8.20;;;;;;;8.20;100.00;96915.53;10366899;28;20277;-74
2022/09/20 08:54:43;;;;;;;16.80;7.50;;;;;;;8.40;100.00;96913.75;10366628;28;20201;-73
2022/09/20 08:59:43;;;;;;;12.83;6.90;;;;;;;8.66;100.00;96905.41;10367075;28;20247;-73
2022/09/20 09:04:44;;;;;;;13.87;6.97;;;;;;;8.70;100.00;96912.00;10348389;28;20209;-73
2022/09/20 09:09:46;;;;;;;11.97;5.90;;;;;;;8.86;100.00;96906.19;10366924;28;20181;-74
2022/09/20 09:14:47;;;;;;;17.40;6.10;;;;;;;8.90;100.00;96901.50;10365880;28;20185;-74
2022/09/20 09:19:54;;;;;;;9.87;5.47;;;;;;;9.07;100.00;96910.41;10349217;28;20509;-74
2022/09/20 09:25:13;;;;;;;9.50;5.27;;;;;;;9.22;100.00;96902.94;10366170;28;20338;-73
2022/09/20 09:30:34;;;;;;;9.80;5.23;;;;;;;9.00;100.00;96907.53;10366233;28;20200;-73
2022/09/20 09:35:35;;;;;;;9.53;4.77;;;;;;;8.87;100.00;96910.44;10354264;28;20665;-74
2022/09/20 09:40:36;;;;;;;6.77;3.80;;;;;;;9.06;100.00;96917.41;10356128;28;20200;-73
2022/09/20 09:45:37;;;;;;;5.83;3.70;;;;;;;8.75;100.00;96919.41;10373365;28;20628;-73
2022/09/20 09:50:38;;;;;;;7.63;4.00;;;;;;;8.63;100.00;96925.75;10373438;28;20193;-73
2022/09/20 09:56:01;;;;;;;10.23;3.50;;;;;;;8.25;100.00;96937.81;10373450;28;20345;-74
2022/09/20 10:01:05;;;;;;;8.90;4.40;;;;;;;8.20;100.00;96940.81;10372813;28;20237;-74
2022/09/20 10:06:33;;;;;;;8.13;3.83;;;;;;;8.24;100.00;96941.38;10355422;28;20221;-73
2022/09/20 10:11:57;;;;;;;7.70;4.33;;;;;;;8.31;100.00;96934.66;10355203;28;20634;-74
2022/09/20 10:17:13;;;;;;;6.67;4.00;;;;;;;8.33;100.00;96927.50;10372666;28;20185;-73
2022/09/20 10:22:48;;;;;;;5.00;4.17;;;;;;;9.08;100.00;96920.72;10354307;28;20227;-73
2022/09/20 10:27:54;;;;;;;5.17;4.23;;;;;;;9.40;100.00;96931.75;10372085;28;20205;-73
2022/09/20 10:33:24;;;;;;;6.13;4.20;;;;;;;11.06;100.00;96917.50;10371899;28;20189;-74
2022/09/20 10:38:33;;;;;;;7.57;4.07;;;;;;;12.15;100.00;96913.38;10354397;28;20628;-74
2022/09/20 10:44:03;;;;;;;5.40;3.28;;;;;;;12.16;100.00;96898.44;10352582;28;20213;-75
2022/09/20 10:49:14;;;;;;;17.85;8.18;;;;;;;12.03;100.00;96902.34;10371796;28;20228;-75
2022/09/20 10:54:33;;;;;;;19.20;9.50;;;;;;;11.57;100.00;96904.47;10371024;28;20272;-75
2022/09/20 10:59:50;;;;;;;22.77;11.55;;;;;;;11.68;100.00;96906.00;10371000;28;20736;-74
2022/09/20 11:05:19;;;;;;;9.43;4.82;;;;;;;11.94;100.00;96896.28;10370315;28;20315;-74
2022/09/20 11:10:28;;;;;;;8.60;4.80;;;;;;;12.63;100.00;96895.19;10369978;28;20198;-74
2022/09/20 11:15:33;;;;;;;5.75;3.78;;;;;;;13.09;100.00;96881.50;10370328;28;20182;-74
2022/09/20 11:20:42;;;;;;;4.82;2.30;;;;;;;15.49;98.85;96832.19;10352603;28;20253;-73
2022/09/20 11:25:50;;;;;;;9.02;3.22;;;;;;;14.94;92.64;96835.09;10351470;28;20261;-73
2022/09/20 11:30:59;;;;;;;8.57;4.15;;;;;;;12.69;99.80;96868.25;10352139;28;20196;-74
2022/09/20 11:36:03;;;;;;;5.05;2.55;;;;;;;14.53;100.00;96880.31;10369567;28;20202;-73
2022/09/20 11:41:16;;;;;;;4.63;1.75;;;;;;;14.75;93.36;96838.28;10351920;28;20197;-73
2022/09/20 11:46:43;;;;;;;3.15;1.75;;;;;;;13.69;94.29;96861.72;10368757;28;20256;-73
2022/09/20 11:52:06;;;;;;;1.02;0.93;;;;;;;13.89;86.26;96809.47;10368596;28;20204;-74
2022/09/20 11:57:12;;;;;;;6.35;1.90;;;;;;;12.28;96.08;96912.91;10368376;28;20196;-73
2022/09/20 12:02:34;;;;;;;1.83;1.20;;;;;;;11.46;100.00;96923.94;10351230;28;20291;-74
2022/09/20 12:07:37;;;;;;;2.95;1.20;;;;;;;10.53;100.00;96890.44;10350975;28;20217;-73
2022/09/20 12:12:44;;;;;;;1.50;1.40;;;;;;;9.19;100.00;96921.50;10350852;28;20637;-73
2022/09/20 12:17:48;;;;;;;2.60;2.10;;;;;;;9.39;100.00;96932.72;10368229;28;20193;-73
2022/09/20 12:22:48;;;;;;;4.15;2.10;;;;;;;10.31;100.00;96928.34;10368014;28;20298;-74
2022/09/20 12:27:58;;;;;;;3.17;1.63;;;;;;;11.63;100.00;96909.09;10350491;28;20327;-73
2022/09/20 12:33:00;;;;;;;2.53;1.27;;;;;;;11.64;100.00;96889.75;10367474;28;20661;-73
2022/09/20 12:38:25;;;;;;;4.93;3.80;;;;;;;12.59;100.00;96865.00;10350588;28;20206;-74
2022/09/20 12:43:27;;;;;;;4.20;3.80;;;;;;;10.20;100.00;96898.00;10349074;28;20732;-74
2022/09/20 12:48:33;;;;;;;6.15;2.58;;;;;;;12.59;100.00;96899.97;10350653;28;20220;-74
2022/09/20 12:53:34;;;;;;;3.92;2.00;;;;;;;14.46;98.19;96837.19;10367086;28;20548;-74
2022/09/20 12:58:59;;;;;;;2.42;1.42;;;;;;;16.21;85.50;96788.25;10367314;28;20605;-73
2022/09/20 13:04:37;;;;;;;6.40;2.60;;;;;;;15.70;82.99;96826.13;10366713;28;20237;-73
2022/09/20 13:09:38;;;;;;;4.47;2.15;;;;;;;13.01;100.00;96904.19;10371721;28;20204;-72
2022/09/20 13:14:39;;;;;;;2.95;1.92;;;;;;;12.44;100.00;96912.94;10357529;28;20223;-73
2022/09/20 13:19:45;;;;;;;2.50;1.90;;;;;;;12.57;100.00;96917.72;10357714;28;20201;-73
2022/09/20 13:24:47;;;;;;;2.30;1.73;;;;;;;13.43;100.00;96906.75;10356377;28;20589;-73
2022/09/20 13:29:48;;;;;;;4.10;1.70;;;;;;;15.21;92.47;96853.97;10357684;28;20687;-73
2022/09/20 13:35:23;;;;;;;3.05;1.48;;;;;;;17.91;80.56;96803.88;10374272;28;20213;-73
2022/09/20 13:40:43;;;;;;;3.25;1.63;;;;;;;19.16;72.61;96784.69;10356726;28;20224;-74
2022/09/20 13:45:45;;;;;;;2.38;1.10;;;;;;;19.11;66.51;96716.25;10373117;28;20581;-73
2022/09/20 13:50:46;;;;;;;2.50;1.20;;;;;;;18.80;61.06;96656.69;10374165;28;20197;-74
2022/09/20 13:55:47;;;;;;;4.38;0.90;;;;;;;19.21;59.23;96644.91;10373171;28;20185;-74
2022/09/20 14:00:53;;;;;;;2.35;1.08;;;;;;;18.38;63.83;96719.88;10373274;28;20295;-74
2022/09/20 14:05:57;;;;;;;2.20;1.30;;;;;;;17.40;62.96;96693.91;10373204;28;20634;-73
2022/09/20 14:11:06;;;;;;;5.00;2.60;;;;;;;14.48;76.28;96858.91;10354917;28;20193;-73
2022/09/20 14:16:07;;;;;;;3.80;1.85;;;;;;;15.56;76.56;96821.69;10372942;28;20273;-74
2022/09/20 14:21:09;;;;;;;5.85;2.25;;;;;;;12.95;79.87;96836.47;10354446;28;20197;-73
2022/09/20 14:26:15;;;;;;;3.92;1.70;;;;;;;14.43;78.68;96850.72;10372587;28;20220;-73
2022/09/20 14:31:28;;;;;;;4.88;2.30;;;;;;;14.07;80.96;96867.09;10372183;28;20617;-74
2022/09/20 14:36:29;;;;;;;5.55;2.50;;;;;;;14.11;82.44;96873.69;10354478;28;20217;-73
2022/09/20 14:41:36;;;;;;;5.00;2.72;;;;;;;13.65;82.62;96870.97;10354280;28;20689;-73
2022/09/20 14:46:37;;;;;;;7.50;3.67;;;;;;;12.38;86.20;96894.38;10332518;28;20225;-72
2022/09/20 14:51:38;;;;;;;8.30;5.75;;;;;;;14.95;86.71;96892.16;10313780;28;20186;-74
2022/09/20 14:56:40;;;;;;;1.50;1.40;;;;;;;16.20;76.15;96815.66;10330511;28;20186;-74
2022/09/20 15:01:44;;;;;;;1.17;1.02;;;;;;;13.06;77.08;96829.22;10328943;28;20238;-73
2022/09/20 15:06:45;;;;;;;3.92;1.40;;;;;;;12.01;82.36;96904.31;10328146;28;20222;-73
2022/09/20 15:11:45;;;;;;;4.53;1.90;;;;;;;11.62;89.85;96966.97;10328016;28;20205;-73
2022/09/20 15:16:46;;;;;;;3.70;1.70;;;;;;;10.04;100.00;96990.25;10328438;28;20190;-72
2022/09/20 15:21:46;;;;;;;2.00;1.40;;;;;;;9.22;100.00;97005.69;10327231;28;20205;-73
2022/09/20 15:26:46;;;;;;;2.93;1.67;;;;;;;9.04;100.00;97007.38;10327800;28;20314;-73
2022/09/20 15:31:47;;;;;;;7.60;6.47;;;;;;;8.52;100.00;97005.06;10309033;28;20201;-73
2022/09/20 15:36:49;;;;;;;4.00;2.10;;;;;;;7.98;100.00;97014.94;10327363;28;20206;-73
2022/09/20 15:41:52;;;;;;;4.10;1.20;;;;;;;7.47;100.00;97001.00;10327312;28;20293;-73
2022/09/20 15:46:53;;;;;;;4.40;2.70;;;;;;;7.40;100.00;97010.31;10326830;28;20217;-74
2022/09/20 15:51:54;;;;;;;3.30;2.50;;;;;;;7.35;100.00;97023.75;10326585;28;20672;-74
2022/09/20 15:56:54;;;;;;;11.73;6.77;;;;;;;7.09;100.00;97034.53;10326910;28;20562;-74
2022/09/20 16:01:54;;;;;;;2.10;1.90;;;;;;;7.11;100.00;97030.03;10293440;28;1006100;-74
2022/09/20 16:06:55;;;;;;;6.57;2.40;;;;;;;6.99;100.00;97043.25;10327867;28;20233;-73
2022/09/20 16:11:57;;;;;;;3.37;1.90;;;;;;;6.85;100.00;97039.16;10327923;28;20282;-74
2022/09/20 16:16:58;;;;;;;2.57;2.30;;;;;;;6.73;100.00;97057.41;10327783;28;20197;-73
2022/09/20 16:21:58;;;;;;;3.50;1.70;;;;;;;6.58;100.00;97061.25;10327021;28;20197;-73
2022/09/20 16:27:00;;;;;;;3.57;2.00;;;;;;;6.52;100.00;97070.38;10327741;28;20232;-74
2022/09/20 16:32:02;;;;;;;4.63;2.30;;;;;;;6.31;100.00;97091.13;10327125;28;20527;-73
2022/09/20 16:37:06;;;;;;;3.17;2.03;;;;;;;6.22;100.00;97095.28;10326922;28;20697;-74
2022/09/20 16:42:09;;;;;;;2.67;1.97;;;;;;;6.00;100.00;97108.28;10326282;28;20240;-74
2022/09/20 16:47:12;;;;;;;3.70;2.70;;;;;;;5.93;100.00;97118.31;10309288;28;20228;-74
2022/09/20 16:52:13;;;;;;;9.23;3.33;;;;;;;5.99;100.00;97130.06;10309512;28;20194;-74
2022/09/20 16:57:14;;;;;;;6.97;2.93;;;;;;;5.93;100.00;97131.31;10309641;28;20678;-74
2022/09/20 17:02:14;;;;;;;4.63;3.10;;;;;;;5.82;100.00;97137.31;10326447;28;20230;-73
2022/09/20 17:07:15;;;;;;;8.17;2.70;;;;;;;5.80;100.00;97139.19;10292921;28;20605;-74
2022/09/20 17:12:20;;;;;;;3.93;2.87;;;;;;;5.68;100.00;97145.31;10326263;28;20670;-73
2022/09/20 17:17:21;;;;;;;4.87;3.40;;;;;;;5.72;100.00;97152.78;10326404;28;20654;-74
2022/09/20 17:22:21;;;;;;;7.43;3.70;;;;;;;5.68;100.00;97151.38;10324838;28;20198;-74
2022/09/20 17:27:22;;;;;;;5.30;4.10;;;;;;;5.67;100.00;97154.91;10307250;28;20224;-74
2022/09/20 17:32:23;;;;;;;5.70;3.57;;;;;;;5.54;100.00;97160.19;10324217;28;20679;-74
2022/09/20 17:37:24;;;;;;;6.17;4.30;;;;;;;5.50;100.00;97176.13;10324311;28;20261;-74
2022/09/20 17:42:26;;;;;;;6.97;3.50;;;;;;;5.46;100.00;97177.28;10324186;28;20225;-74
2022/09/20 17:47:26;;;;;;;9.20;3.60;;;;;;;5.46;100.00;97192.88;10324028;28;20285;-74
2022/09/20 17:52:26;;;;;;;5.77;3.30;;;;;;;5.51;100.00;97204.59;10324021;28;20341;-74
2022/09/20 17:57:27;;;;;;;5.77;4.00;;;;;;;5.64;100.00;97211.50;10330582;28;20190;-74
2022/09/20 18:02:27;;;;;;;4.30;3.20;;;;;;;5.61;100.00;97230.72;10330812;28;20246;-74
2022/09/20 18:07:27;;;;;;;6.77;4.30;;;;;;;5.67;100.00;97227.69;10331220;28;20336;-73
2022/09/20 18:12:28;;;;;;;6.67;3.80;;;;;;;5.72;100.00;97229.94;10330227;28;20194;-74
2022/09/20 18:17:28;;;;;;;3.67;2.63;;;;;;;5.61;100.00;97235.09;10331176;28;20285;-73
2022/09/20 18:22:29;;;;;;;3.63;2.70;;;;;;;5.65;100.00;97236.50;10329888;28;20189;-74
2022/09/20 18:27:29;;;;;;;3.57;3.00;;;;;;;5.54;100.00;97234.72;10331048;28;20308;-74
2022/09/20 18:32:30;;;;;;;9.50;3.30;;;;;;;5.50;100.00;97233.28;10331231;28;20197;-74
2022/09/20 18:37:30;;;;;;;5.97;4.13;;;;;;;5.52;100.00;97242.63;10331339;28;20682;-74
2022/09/20 18:42:31;;;;;;;7.90;5.87;;;;;;;5.57;100.00;97252.66;10330566;28;20256;-74
2022/09/20 18:47:31;;;;;;;8.23;5.43;;;;;;;5.46;100.00;97253.44;10330333;28;20276;-74
2022/09/20 18:52:34;;;;;;;8.17;4.70;;;;;;;5.49;100.00;97249.81;10330893;28;20309;-73
2022/09/20 18:57:35;;;;;;;8.27;4.93;;;;;;;5.47;100.00;97259.50;10330450;28;20182;-74
2022/09/20 19:02:52;;;;;;;7.20;4.57;;;;;;;5.53;100.00;97259.06;10329933;28;20234;-73
2022/09/20 19:08:15;;;;;;;5.10;3.73;;;;;;;5.50;100.00;97264.47;10329432;28;20200;-74
2022/09/20 19:13:45;;;;;;;10.47;3.47;;;;;;;5.45;100.00;97264.81;10329529;28;20654;-73
2022/09/20 19:19:08;;;;;;;6.40;3.60;;;;;;;5.39;100.00;97267.00;10311197;28;20783;-74
2022/09/20 19:24:26;;;;;;;5.57;3.70;;;;;;;5.50;100.00;97285.25;10329513;28;20284;-74
2022/09/20 19:29:27;;;;;;;5.53;3.40;;;;;;;5.57;100.00;97286.47;10329315;28;20193;-74
2022/09/20 19:34:29;;;;;;;5.13;3.40;;;;;;;5.52;100.00;97291.16;10328927;28;20619;-73
2022/09/20 19:39:39;;;;;;;6.77;3.70;;;;;;;5.53;100.00;97295.44;10328957;28;20201;-73
2022/09/20 19:45:00;;;;;;;4.40;3.30;;;;;;;5.47;100.00;97296.69;10326925;28;20230;-73
2022/09/20 19:50:07;;;;;;;4.17;3.07;;;;;;;5.46;100.00;97296.81;10328303;28;20205;-73
2022/09/20 19:55:12;;;;;;;7.57;3.40;;;;;;;5.45;100.00;97297.75;10328532;28;20567;-74
2022/09/20 20:00:18;;;;;;;5.77;3.67;;;;;;;5.41;100.00;97302.34;10327890;28;20245;-74
2022/09/20 20:05:20;;;;;;;3.27;2.93;;;;;;;5.48;100.00;97308.75;10327889;28;20644;-73
2022/09/20 20:10:48;;;;;;;8.40;3.17;;;;;;;5.49;100.00;97309.59;10327861;28;20198;-73
2022/09/20 20:15:54;;;;;;;3.57;3.17;;;;;;;5.52;100.00;97309.34;10322417;28;20198;-73
2022/09/20 20:20:55;;;;;;;4.17;3.47;;;;;;;5.52;100.00;97322.34;10326346;28;20229;-74
2022/09/20 20:26:15;;;;;;;4.87;3.30;;;;;;;5.48;100.00;97324.34;10326188;28;20515;-73
2022/09/20 20:31:16;;;;;;;3.87;3.47;;;;;;;5.51;100.00;97337.13;10327755;28;20602;-73
2022/09/20 20:36:16;;;;;;;3.50;3.20;;;;;;;5.52;100.00;97337.94;10326932;28;20244;-74
2022/09/20 20:41:19;;;;;;;6.47;3.23;;;;;;;5.49;100.00;97338.97;10327555;28;20189;-74
2022/09/20 20:46:19;;;;;;;5.27;3.27;;;;;;;5.48;100.00;97344.28;10326417;28;20584;-74
2022/09/20 20:51:21;;;;;;;3.60;3.07;;;;;;;5.47;100.00;97348.66;10326989;28;20194;-73
2022/09/20 20:56:27;;;;;;;7.57;3.20;;;;;;;5.53;100.00;97345.63;10309400;28;20229;-73
2022/09/20 21:01:32;;;;;;;3.50;2.93;;;;;;;5.56;100.00;97349.78;10326561;28;20237;-73
2022/09/20 21:06:33;;;;;;;4.17;3.30;;;;;;;5.51;100.00;97344.91;10326366;28;20224;-73
2022/09/20 21:11:41;;;;;;;4.63;3.53;;;;;;;5.58;100.00;97352.28;10326416;28;20528;-73
2022/09/20 21:16:42;;;;;;;3.80;3.20;;;;;;;5.61;100.00;97346.88;10309679;28;20182;-73
2022/09/20 21:21:44;;;;;;;3.70;3.07;;;;;;;5.61;100.00;97350.28;10326620;28;20194;-73
2022/09/20 21:26:47;;;;;;;4.83;3.03;;;;;;;5.64;100.00;97354.44;10326548;28;20491;-73
2022/09/20 21:31:47;;;;;;;5.47;2.90;;;;;;;5.67;100.00;97349.84;10332210;28;20194;-73
2022/09/20 21:36:48;;;;;;;3.63;3.23;;;;;;;5.61;100.00;97358.09;10334109;28;20251;-73
2022/09/20 21:41:48;;;;;;;3.90;3.03;;;;;;;5.65;100.00;97364.72;10333662;28;20209;-73
2022/09/20 21:46:48;;;;;;;4.40;2.93;;;;;;;5.68;100.00;97361.91;10299740;28;20238;-73
2022/09/20 21:51:52;;;;;;;4.80;3.13;;;;;;;5.68;100.00;97368.84;10333337;28;20232;-73
2022/09/20 21:56:54;;;;;;;3.20;2.90;;;;;;;5.69;100.00;97368.75;10344512;28;20263;-73
2022/09/20 22:01:56;;;;;;;3.30;2.50;;;;;;;5.74;100.00;97378.81;10332743;28;20240;-73
2022/09/20 22:06:56;;;;;;;4.00;2.70;;;;;;;5.80;100.00;97377.56;10332396;28;20221;-73
2022/09/20 22:11:56;;;;;;;3.40;2.80;;;;;;;5.84;100.00;97376.41;10332080;28;20193;-73
2022/09/20 22:16:58;;;;;;;4.33;2.80;;;;;;;5.83;100.00;97383.34;10332390;28;20273;-73
2022/09/20 22:21:58;;;;;;;3.60;2.90;;;;;;;5.87;100.00;97378.78;10332168;28;20198;-73
2022/09/20 22:26:58;;;;;;;3.80;2.80;;;;;;;5.94;100.00;97384.38;10332041;28;20217;-73
2022/09/20 22:31:59;;;;;;;4.70;2.77;;;;;;;5.98;100.00;97381.47;10331888;28;20281;-73
2022/09/20 22:37:00;;;;;;;3.10;2.60;;;;;;;5.95;100.00;97384.25;10331167;28;20578;-73
2022/09/20 22:42:00;;;;;;;3.33;2.37;;;;;;;5.95;100.00;97383.44;10331028;28;20481;-73
2022/09/20 22:47:00;;;;;;;5.87;2.57;;;;;;;6.03;100.00;97386.31;10330902;28;20236;-73
2022/09/20 22:52:01;;;;;;;3.10;2.67;;;;;;;6.02;100.00;97385.50;10330856;28;20681;-73
2022/09/20 22:57:01;;;;;;;3.97;2.77;;;;;;;6.02;100.00;97387.28;10330821;28;20528;-73
2022/09/20 23:02:01;;;;;;;2.70;2.50;;;;;;;6.13;100.00;97379.53;10330353;28;20644;-73
2022/09/20 23:07:02;;;;;;;3.97;2.30;;;;;;;6.13;100.00;97383.91;10312795;28;20222;-72
2022/09/20 23:12:02;;;;;;;3.57;2.57;;;;;;;6.10;100.00;97386.72;10330197;28;20190;-72
2022/09/20 23:17:02;;;;;;;5.23;3.00;;;;;;;6.12;100.00;97392.63;10330200;28;20185;-73
2022/09/20 23:22:03;;;;;;;6.00;2.80;;;;;;;6.14;100.00;97390.75;10329982;28;20202;-72
2022/09/20 23:27:03;;;;;;;3.90;2.40;;;;;;;6.09;100.00;97391.09;10329171;28;20595;-73
2022/09/20 23:32:04;;;;;;;4.20;2.20;;;;;;;6.09;100.00;97395.47;10329655;28;20598;-73
2022/09/20 23:37:05;;;;;;;4.23;2.73;;;;;;;6.01;100.00;97402.03;10329072;28;20225;-73
2022/09/20 23:42:06;;;;;;;5.60;2.37;;;;;;;6.01;100.00;97406.44;10328538;28;20564;-73
2022/09/20 23:47:06;;;;;;;3.23;2.43;;;;;;;6.01;100.00;97406.44;10328340;28;20217;-72
2022/09/20 23:52:06;;;;;;;3.93;2.83;;;;;;;6.05;100.00;97410.47;10327879;28;20225;-73
2022/09/20 23:57:07;;;;;;;6.37;2.60;;;;;;;6.06;100.00;97415.56;10328767;28;20288;-73
